sensor_id;sensor_type;location;lat;lon;timestamp;temperature;humidity
35043;DHT22;21230;51.170;17.024;2022-12-07T00:01:24;2.20;99.90
35043;DHT22;21230;51.170;17.024;2022-12-07T00:03:53;2.10;99.90
35043;DHT22;21230;51.170;17.024;2022-12-07T00:06:19;2.10;99.90
35043;DHT22;21230;51.170;17.024;2022-12-07T00:08:46;2.10;99.90
35043;DHT22;21230;51.170;17.024;2022-12-07T00:11:15;2.20;99.90
35043;DHT22;21230;51.170;17.024;2022-12-07T00:13:42;2.20;99.90
35043;DHT22;21230;51.170;17.024;2022-12-07T00:16:11;2.20;99.90
35043;DHT22;21230;51.170;17.024;2022-12-07T00:18:38;2.20;99.90
35043;DHT22;21230;51.170;17.024;2022-12-07T00:21:09;2.20;99.90
35043;DHT22;21230;51.170;17.024;2022-12-07T00:23:36;2.10;99.90
35043;DHT22;21230;51.170;17.024;2022-12-07T00:26:07;2.10;99.90
35043;DHT22;21230;51.170;17.024;2022-12-07T00:28:33;2.10;99.90
35043;DHT22;21230;51.170;17.024;2022-12-07T00:31:08;2.10;99.90
35043;DHT22;21230;51.170;17.024;2022-12-07T00:33:35;2.10;99.90
35043;DHT22;21230;51.170;17.024;2022-12-07T00:36:02;2.10;99.90
35043;DHT22;21230;51.170;17.024;2022-12-07T00:38:30;2.10;99.90
35043;DHT22;21230;51.170;17.024;2022-12-07T00:40:58;2.20;99.90
35043;DHT22;21230;51.170;17.024;2022-12-07T00:43:24;2.10;99.90
35043;DHT22;21230;51.170;17.024;2022-12-07T00:45:51;2.10;99.90
35043;DHT22;21230;51.170;17.024;2022-12-07T00:48:17;2.10;99.90
35043;DHT22;21230;51.170;17.024;2022-12-07T00:50:42;2.10;99.90
35043;DHT22;21230;51.170;17.024;2022-12-07T00:53:08;2.10;99.90
35043;DHT22;21230;51.170;17.024;2022-12-07T00:55:35;2.10;99.90
35043;DHT22;21230;51.170;17.024;2022-12-07T00:58:02;2.10;99.90
35043;DHT22;21230;51.170;17.024;2022-12-07T01:00:28;2.20;99.90
35043;DHT22;21230;51.170;17.024;2022-12-07T01:02:54;2.10;99.90
35043;DHT22;21230;51.170;17.024;2022-12-07T01:05:22;2.10;99.90
35043;DHT22;21230;51.170;17.024;2022-12-07T01:07:48;2.10;99.90
35043;DHT22;21230;51.170;17.024;2022-12-07T01:10:14;2.20;99.90
35043;DHT22;21230;51.170;17.024;2022-12-07T01:12:40;2.10;99.90
35043;DHT22;21230;51.170;17.024;2022-12-07T01:15:08;2.10;99.90
35043;DHT22;21230;51.170;17.024;2022-12-07T01:17:34;2.10;99.90
35043;DHT22;21230;51.170;17.024;2022-12-07T01:20:00;2.10;99.90
35043;DHT22;21230;51.170;17.024;2022-12-07T01:22:26;2.10;99.90
35043;DHT22;21230;51.170;17.024;2022-12-07T01:24:53;2.10;99.90
35043;DHT22;21230;51.170;17.024;2022-12-07T01:27:18;2.10;99.90
35043;DHT22;21230;51.170;17.024;2022-12-07T01:29:44;2.10;99.90
35043;DHT22;21230;51.170;17.024;2022-12-07T01:32:10;2.10;99.90
35043;DHT22;21230;51.170;17.024;2022-12-07T01:34:38;2.10;99.90
35043;DHT22;21230;51.170;17.024;2022-12-07T01:37:05;2.10;99.90
35043;DHT22;21230;51.170;17.024;2022-12-07T01:39:31;2.10;99.90
35043;DHT22;21230;51.170;17.024;2022-12-07T01:41:56;2.10;99.90
35043;DHT22;21230;51.170;17.024;2022-12-07T01:44:29;2.10;99.90
35043;DHT22;21230;51.170;17.024;2022-12-07T01:47:02;2.10;99.90
35043;DHT22;21230;51.170;17.024;2022-12-07T01:49:46;2.10;99.90
35043;DHT22;21230;51.170;17.024;2022-12-07T01:52:19;2.10;99.90
35043;DHT22;21230;51.170;17.024;2022-12-07T01:54:48;2.10;99.90
35043;DHT22;21230;51.170;17.024;2022-12-07T01:57:16;2.00;99.90
35043;DHT22;21230;51.170;17.024;2022-12-07T01:59:47;2.10;99.90
35043;DHT22;21230;51.170;17.024;2022-12-07T02:02:41;2.10;99.90
35043;DHT22;21230;51.170;17.024;2022-12-07T02:05:07;2.10;99.90
35043;DHT22;21230;51.170;17.024;2022-12-07T02:07:34;2.00;99.90
35043;DHT22;21230;51.170;17.024;2022-12-07T02:10:29;2.00;99.90
35043;DHT22;21230;51.170;17.024;2022-12-07T02:21:19;1.90;99.90
35043;DHT22;21230;51.170;17.024;2022-12-07T02:30:07;1.90;99.90
35043;DHT22;21230;51.170;17.024;2022-12-07T02:32:45;1.90;99.90
35043;DHT22;21230;51.170;17.024;2022-12-07T02:40:40;1.80;99.90
35043;DHT22;21230;51.170;17.024;2022-12-07T02:43:12;1.90;99.90
35043;DHT22;21230;51.170;17.024;2022-12-07T02:45:40;1.90;99.90
35043;DHT22;21230;51.170;17.024;2022-12-07T02:48:08;1.80;99.90
35043;DHT22;21230;51.170;17.024;2022-12-07T02:50:35;1.80;99.90
35043;DHT22;21230;51.170;17.024;2022-12-07T02:53:01;1.80;99.90
35043;DHT22;21230;51.170;17.024;2022-12-07T02:55:40;1.80;99.90
35043;DHT22;21230;51.170;17.024;2022-12-07T03:00:54;1.80;99.90
35043;DHT22;21230;51.170;17.024;2022-12-07T03:03:23;1.80;99.90
35043;DHT22;21230;51.170;17.024;2022-12-07T03:10:56;1.80;99.90
35043;DHT22;21230;51.170;17.024;2022-12-07T03:16:30;1.80;99.90
35043;DHT22;21230;51.170;17.024;2022-12-07T03:19:13;1.80;99.90
35043;DHT22;21230;51.170;17.024;2022-12-07T03:22:04;1.80;99.90
35043;DHT22;21230;51.170;17.024;2022-12-07T03:24:40;1.80;99.90
35043;DHT22;21230;51.170;17.024;2022-12-07T03:27:13;1.80;99.90
35043;DHT22;21230;51.170;17.024;2022-12-07T03:29:44;1.80;99.90
35043;DHT22;21230;51.170;17.024;2022-12-07T03:32:25;1.70;99.90
35043;DHT22;21230;51.170;17.024;2022-12-07T03:35:12;1.80;99.90
35043;DHT22;21230;51.170;17.024;2022-12-07T03:37:49;1.80;99.90
35043;DHT22;21230;51.170;17.024;2022-12-07T03:40:18;1.70;99.90
35043;DHT22;21230;51.170;17.024;2022-12-07T03:42:48;1.70;99.90
35043;DHT22;21230;51.170;17.024;2022-12-07T03:45:14;1.70;99.90
35043;DHT22;21230;51.170;17.024;2022-12-07T03:48:04;1.70;99.90
35043;DHT22;21230;51.170;17.024;2022-12-07T03:53:59;1.70;99.90
35043;DHT22;21230;51.170;17.024;2022-12-07T03:56:27;1.70;99.90
35043;DHT22;21230;51.170;17.024;2022-12-07T03:58:54;1.70;99.90
35043;DHT22;21230;51.170;17.024;2022-12-07T04:01:20;1.70;99.90
35043;DHT22;21230;51.170;17.024;2022-12-07T04:03:46;1.70;99.90
35043;DHT22;21230;51.170;17.024;2022-12-07T04:06:13;1.70;99.90
35043;DHT22;21230;51.170;17.024;2022-12-07T04:08:39;1.70;99.90
35043;DHT22;21230;51.170;17.024;2022-12-07T04:11:06;1.70;99.90
35043;DHT22;21230;51.170;17.024;2022-12-07T04:13:32;1.70;99.90
35043;DHT22;21230;51.170;17.024;2022-12-07T04:16:18;1.70;99.90
35043;DHT22;21230;51.170;17.024;2022-12-07T04:18:44;1.70;99.90
35043;DHT22;21230;51.170;17.024;2022-12-07T04:21:11;1.70;99.90
35043;DHT22;21230;51.170;17.024;2022-12-07T04:23:37;1.70;99.90
35043;DHT22;21230;51.170;17.024;2022-12-07T04:26:03;1.70;99.90
35043;DHT22;21230;51.170;17.024;2022-12-07T04:28:29;1.70;99.90
35043;DHT22;21230;51.170;17.024;2022-12-07T04:30:55;1.80;99.90
35043;DHT22;21230;51.170;17.024;2022-12-07T04:33:21;1.80;99.90
35043;DHT22;21230;51.170;17.024;2022-12-07T04:35:47;1.80;99.90
35043;DHT22;21230;51.170;17.024;2022-12-07T04:38:13;1.80;99.90
35043;DHT22;21230;51.170;17.024;2022-12-07T04:40:39;1.70;99.90
35043;DHT22;21230;51.170;17.024;2022-12-07T04:43:04;1.70;99.90
35043;DHT22;21230;51.170;17.024;2022-12-07T04:45:30;1.70;99.90
35043;DHT22;21230;51.170;17.024;2022-12-07T04:47:56;1.70;99.90
35043;DHT22;21230;51.170;17.024;2022-12-07T04:50:22;1.70;99.90
35043;DHT22;21230;51.170;17.024;2022-12-07T04:52:48;1.70;99.90
35043;DHT22;21230;51.170;17.024;2022-12-07T04:55:14;1.60;99.90
35043;DHT22;21230;51.170;17.024;2022-12-07T04:57:40;1.60;99.90
35043;DHT22;21230;51.170;17.024;2022-12-07T05:00:06;1.60;99.90
35043;DHT22;21230;51.170;17.024;2022-12-07T05:02:32;1.60;99.90
35043;DHT22;21230;51.170;17.024;2022-12-07T05:04:58;1.60;99.90
35043;DHT22;21230;51.170;17.024;2022-12-07T05:07:24;1.70;99.90
35043;DHT22;21230;51.170;17.024;2022-12-07T05:09:50;1.70;99.90
35043;DHT22;21230;51.170;17.024;2022-12-07T05:12:15;1.70;99.90
35043;DHT22;21230;51.170;17.024;2022-12-07T05:14:41;1.70;99.90
35043;DHT22;21230;51.170;17.024;2022-12-07T05:17:08;1.70;99.90
35043;DHT22;21230;51.170;17.024;2022-12-07T05:19:35;1.70;99.90
35043;DHT22;21230;51.170;17.024;2022-12-07T05:22:03;1.80;99.90
35043;DHT22;21230;51.170;17.024;2022-12-07T05:24:29;1.80;99.90
35043;DHT22;21230;51.170;17.024;2022-12-07T05:26:55;1.80;99.90
35043;DHT22;21230;51.170;17.024;2022-12-07T05:29:21;1.80;99.90
35043;DHT22;21230;51.170;17.024;2022-12-07T05:31:47;1.90;99.90
35043;DHT22;21230;51.170;17.024;2022-12-07T05:34:16;1.90;99.90
35043;DHT22;21230;51.170;17.024;2022-12-07T05:36:42;1.90;99.90
35043;DHT22;21230;51.170;17.024;2022-12-07T05:39:11;2.00;99.90
35043;DHT22;21230;51.170;17.024;2022-12-07T05:41:39;2.00;99.90
35043;DHT22;21230;51.170;17.024;2022-12-07T05:44:23;2.00;99.90
35043;DHT22;21230;51.170;17.024;2022-12-07T05:46:50;2.00;99.90
35043;DHT22;21230;51.170;17.024;2022-12-07T05:49:16;2.00;99.90
35043;DHT22;21230;51.170;17.024;2022-12-07T05:51:42;2.00;99.90
35043;DHT22;21230;51.170;17.024;2022-12-07T05:54:08;2.10;99.90
35043;DHT22;21230;51.170;17.024;2022-12-07T05:56:33;2.00;99.90
35043;DHT22;21230;51.170;17.024;2022-12-07T05:59:00;2.00;99.90
35043;DHT22;21230;51.170;17.024;2022-12-07T06:01:45;2.00;99.90
35043;DHT22;21230;51.170;17.024;2022-12-07T06:04:11;2.00;99.90
35043;DHT22;21230;51.170;17.024;2022-12-07T06:06:37;2.00;99.90
35043;DHT22;21230;51.170;17.024;2022-12-07T06:09:06;2.00;99.90
35043;DHT22;21230;51.170;17.024;2022-12-07T06:11:32;2.00;99.90
35043;DHT22;21230;51.170;17.024;2022-12-07T06:14:16;2.00;99.90
35043;DHT22;21230;51.170;17.024;2022-12-07T06:16:44;2.00;99.90
35043;DHT22;21230;51.170;17.024;2022-12-07T06:19:09;2.10;99.90
35043;DHT22;21230;51.170;17.024;2022-12-07T06:21:35;2.00;99.90
35043;DHT22;21230;51.170;17.024;2022-12-07T06:24:02;2.00;99.90
35043;DHT22;21230;51.170;17.024;2022-12-07T06:26:33;2.00;99.90
35043;DHT22;21230;51.170;17.024;2022-12-07T06:28:58;2.00;99.90
35043;DHT22;21230;51.170;17.024;2022-12-07T06:31:24;2.00;99.90
35043;DHT22;21230;51.170;17.024;2022-12-07T06:33:50;2.00;99.90
35043;DHT22;21230;51.170;17.024;2022-12-07T06:36:17;2.00;99.90
35043;DHT22;21230;51.170;17.024;2022-12-07T06:38:43;2.00;99.90
35043;DHT22;21230;51.170;17.024;2022-12-07T06:41:10;2.00;99.90
35043;DHT22;21230;51.170;17.024;2022-12-07T06:43:36;2.00;99.90
35043;DHT22;21230;51.170;17.024;2022-12-07T06:46:02;2.00;99.90
35043;DHT22;21230;51.170;17.024;2022-12-07T06:48:29;2.00;99.90
35043;DHT22;21230;51.170;17.024;2022-12-07T06:50:55;2.00;99.90
35043;DHT22;21230;51.170;17.024;2022-12-07T06:53:22;2.00;99.90
35043;DHT22;21230;51.170;17.024;2022-12-07T06:55:48;2.00;99.90
35043;DHT22;21230;51.170;17.024;2022-12-07T06:58:13;2.00;99.90
35043;DHT22;21230;51.170;17.024;2022-12-07T07:00:39;2.10;99.90
35043;DHT22;21230;51.170;17.024;2022-12-07T07:03:06;2.00;99.90
35043;DHT22;21230;51.170;17.024;2022-12-07T07:05:32;2.00;99.90
35043;DHT22;21230;51.170;17.024;2022-12-07T07:07:58;2.10;99.90
35043;DHT22;21230;51.170;17.024;2022-12-07T07:10:23;2.10;99.90
35043;DHT22;21230;51.170;17.024;2022-12-07T07:12:49;2.10;99.90
35043;DHT22;21230;51.170;17.024;2022-12-07T07:15:15;2.10;99.90
35043;DHT22;21230;51.170;17.024;2022-12-07T07:17:41;2.10;99.90
35043;DHT22;21230;51.170;17.024;2022-12-07T07:20:07;2.10;99.90
35043;DHT22;21230;51.170;17.024;2022-12-07T07:22:33;2.10;99.90
35043;DHT22;21230;51.170;17.024;2022-12-07T07:24:59;2.10;99.90
35043;DHT22;21230;51.170;17.024;2022-12-07T07:27:25;2.10;99.90
35043;DHT22;21230;51.170;17.024;2022-12-07T07:29:51;2.10;99.90
35043;DHT22;21230;51.170;17.024;2022-12-07T07:32:17;2.10;99.90
35043;DHT22;21230;51.170;17.024;2022-12-07T07:34:43;2.20;99.90
35043;DHT22;21230;51.170;17.024;2022-12-07T07:37:08;2.20;99.90
35043;DHT22;21230;51.170;17.024;2022-12-07T07:39:36;2.20;99.90
35043;DHT22;21230;51.170;17.024;2022-12-07T07:42:02;2.20;99.90
35043;DHT22;21230;51.170;17.024;2022-12-07T07:44:28;2.30;99.90
35043;DHT22;21230;51.170;17.024;2022-12-07T07:46:54;2.30;99.90
35043;DHT22;21230;51.170;17.024;2022-12-07T07:49:20;2.30;99.90
35043;DHT22;21230;51.170;17.024;2022-12-07T07:51:45;2.20;99.90
35043;DHT22;21230;51.170;17.024;2022-12-07T07:54:11;2.20;99.90
35043;DHT22;21230;51.170;17.024;2022-12-07T07:56:38;2.20;99.90
35043;DHT22;21230;51.170;17.024;2022-12-07T07:59:04;2.20;99.90
35043;DHT22;21230;51.170;17.024;2022-12-07T08:01:30;2.20;99.90
35043;DHT22;21230;51.170;17.024;2022-12-07T08:03:57;2.30;99.90
35043;DHT22;21230;51.170;17.024;2022-12-07T08:06:25;2.20;99.90
35043;DHT22;21230;51.170;17.024;2022-12-07T08:08:52;2.20;99.90
35043;DHT22;21230;51.170;17.024;2022-12-07T08:11:17;2.20;99.90
35043;DHT22;21230;51.170;17.024;2022-12-07T08:13:46;2.20;99.90
35043;DHT22;21230;51.170;17.024;2022-12-07T08:16:13;2.20;99.90
35043;DHT22;21230;51.170;17.024;2022-12-07T08:18:41;2.20;99.90
35043;DHT22;21230;51.170;17.024;2022-12-07T08:21:09;2.20;99.90
35043;DHT22;21230;51.170;17.024;2022-12-07T08:23:36;2.30;99.90
35043;DHT22;21230;51.170;17.024;2022-12-07T08:26:04;2.30;99.90
35043;DHT22;21230;51.170;17.024;2022-12-07T08:28:31;2.30;99.90
35043;DHT22;21230;51.170;17.024;2022-12-07T08:31:05;2.30;99.90
35043;DHT22;21230;51.170;17.024;2022-12-07T08:33:33;2.30;99.90
35043;DHT22;21230;51.170;17.024;2022-12-07T08:36:04;2.30;99.90
35043;DHT22;21230;51.170;17.024;2022-12-07T08:38:30;2.40;99.90
35043;DHT22;21230;51.170;17.024;2022-12-07T08:40:58;2.50;99.90
35043;DHT22;21230;51.170;17.024;2022-12-07T08:43:25;2.50;99.90
35043;DHT22;21230;51.170;17.024;2022-12-07T08:48:26;2.60;99.90
35043;DHT22;21230;51.170;17.024;2022-12-07T08:50:52;2.50;99.90
35043;DHT22;21230;51.170;17.024;2022-12-07T08:53:18;2.60;99.90
35043;DHT22;21230;51.170;17.024;2022-12-07T08:55:45;2.60;99.90
35043;DHT22;21230;51.170;17.024;2022-12-07T08:58:12;2.60;99.90
35043;DHT22;21230;51.170;17.024;2022-12-07T09:00:39;2.70;99.90
35043;DHT22;21230;51.170;17.024;2022-12-07T09:03:04;2.80;99.90
35043;DHT22;21230;51.170;17.024;2022-12-07T09:05:33;2.90;99.90
35043;DHT22;21230;51.170;17.024;2022-12-07T09:08:01;3.00;99.90
35043;DHT22;21230;51.170;17.024;2022-12-07T09:10:28;3.00;99.90
35043;DHT22;21230;51.170;17.024;2022-12-07T09:12:54;3.10;99.90
35043;DHT22;21230;51.170;17.024;2022-12-07T09:15:20;3.00;99.90
35043;DHT22;21230;51.170;17.024;2022-12-07T09:17:46;3.10;99.90
35043;DHT22;21230;51.170;17.024;2022-12-07T09:20:12;3.10;99.90
35043;DHT22;21230;51.170;17.024;2022-12-07T09:22:38;3.30;99.90
35043;DHT22;21230;51.170;17.024;2022-12-07T09:25:04;3.30;99.90
35043;DHT22;21230;51.170;17.024;2022-12-07T09:27:30;3.40;99.90
35043;DHT22;21230;51.170;17.024;2022-12-07T09:29:58;3.40;99.90
35043;DHT22;21230;51.170;17.024;2022-12-07T09:32:24;3.50;99.90
35043;DHT22;21230;51.170;17.024;2022-12-07T09:34:50;3.60;99.90
35043;DHT22;21230;51.170;17.024;2022-12-07T09:37:17;3.60;99.90
35043;DHT22;21230;51.170;17.024;2022-12-07T09:39:44;3.60;99.90
35043;DHT22;21230;51.170;17.024;2022-12-07T09:42:34;3.60;99.90
35043;DHT22;21230;51.170;17.024;2022-12-07T09:45:01;3.50;99.90
35043;DHT22;21230;51.170;17.024;2022-12-07T09:47:28;3.50;99.90
35043;DHT22;21230;51.170;17.024;2022-12-07T09:50:04;3.50;99.90
35043;DHT22;21230;51.170;17.024;2022-12-07T09:52:31;3.60;99.90
35043;DHT22;21230;51.170;17.024;2022-12-07T09:54:57;3.60;99.90
35043;DHT22;21230;51.170;17.024;2022-12-07T09:57:31;3.60;99.90
35043;DHT22;21230;51.170;17.024;2022-12-07T10:00:03;3.70;99.90
35043;DHT22;21230;51.170;17.024;2022-12-07T10:02:38;3.80;99.90
35043;DHT22;21230;51.170;17.024;2022-12-07T10:05:06;3.80;99.90
35043;DHT22;21230;51.170;17.024;2022-12-07T10:07:33;3.90;99.90
35043;DHT22;21230;51.170;17.024;2022-12-07T10:10:03;3.90;99.90
35043;DHT22;21230;51.170;17.024;2022-12-07T10:12:29;4.00;99.90
35043;DHT22;21230;51.170;17.024;2022-12-07T10:15:00;4.00;99.90
35043;DHT22;21230;51.170;17.024;2022-12-07T10:17:39;4.10;99.90
35043;DHT22;21230;51.170;17.024;2022-12-07T10:23:01;3.90;99.90
35043;DHT22;21230;51.170;17.024;2022-12-07T10:25:29;3.90;99.90
35043;DHT22;21230;51.170;17.024;2022-12-07T10:30:29;3.90;99.90
35043;DHT22;21230;51.170;17.024;2022-12-07T10:32:55;3.90;99.90
35043;DHT22;21230;51.170;17.024;2022-12-07T10:35:24;3.80;99.90
35043;DHT22;21230;51.170;17.024;2022-12-07T10:37:52;3.80;99.90
35043;DHT22;21230;51.170;17.024;2022-12-07T10:40:36;3.70;99.90
35043;DHT22;21230;51.170;17.024;2022-12-07T10:43:02;3.70;99.90
35043;DHT22;21230;51.170;17.024;2022-12-07T10:45:29;3.60;99.90
35043;DHT22;21230;51.170;17.024;2022-12-07T10:48:00;3.60;99.90
35043;DHT22;21230;51.170;17.024;2022-12-07T10:53:37;3.40;99.90
35043;DHT22;21230;51.170;17.024;2022-12-07T11:07:34;3.40;99.90
35043;DHT22;21230;51.170;17.024;2022-12-07T11:24:02;3.40;99.90
35043;DHT22;21230;51.170;17.024;2022-12-07T11:37:37;3.30;99.90
35043;DHT22;21230;51.170;17.024;2022-12-07T11:43:02;3.40;99.90
35043;DHT22;21230;51.170;17.024;2022-12-07T11:45:34;3.40;99.90
35043;DHT22;21230;51.170;17.024;2022-12-07T11:50:45;3.40;99.90
35043;DHT22;21230;51.170;17.024;2022-12-07T12:01:18;3.40;99.90
35043;DHT22;21230;51.170;17.024;2022-12-07T12:06:48;3.40;99.90
35043;DHT22;21230;51.170;17.024;2022-12-07T12:09:15;3.40;99.90
35043;DHT22;21230;51.170;17.024;2022-12-07T12:23:28;3.50;99.90
35043;DHT22;21230;51.170;17.024;2022-12-07T12:26:05;3.60;99.90
35043;DHT22;21230;51.170;17.024;2022-12-07T12:28:51;3.60;99.90
35043;DHT22;21230;51.170;17.024;2022-12-07T12:33:54;3.60;99.90
35043;DHT22;21230;51.170;17.024;2022-12-07T12:39:15;3.70;99.90
35043;DHT22;21230;51.170;17.024;2022-12-07T12:47:01;3.70;99.90
35043;DHT22;21230;51.170;17.024;2022-12-07T12:49:41;3.70;99.90
35043;DHT22;21230;51.170;17.024;2022-12-07T12:55:13;3.70;99.90
35043;DHT22;21230;51.170;17.024;2022-12-07T12:57:40;3.70;99.90
35043;DHT22;21230;51.170;17.024;2022-12-07T13:00:16;3.60;99.90
35043;DHT22;21230;51.170;17.024;2022-12-07T13:02:55;3.60;99.90
35043;DHT22;21230;51.170;17.024;2022-12-07T13:05:24;3.60;99.90
35043;DHT22;21230;51.170;17.024;2022-12-07T13:08:01;3.60;99.90
35043;DHT22;21230;51.170;17.024;2022-12-07T13:15:54;3.60;99.90
35043;DHT22;21230;51.170;17.024;2022-12-07T13:36:52;3.60;99.90
35043;DHT22;21230;51.170;17.024;2022-12-07T13:39:20;3.50;99.90
35043;DHT22;21230;51.170;17.024;2022-12-07T13:41:56;3.50;99.90
35043;DHT22;21230;51.170;17.024;2022-12-07T13:44:24;3.50;99.90
35043;DHT22;21230;51.170;17.024;2022-12-07T13:47:04;3.50;99.90
35043;DHT22;21230;51.170;17.024;2022-12-07T13:49:37;3.60;99.90
35043;DHT22;21230;51.170;17.024;2022-12-07T13:52:28;3.60;99.90
35043;DHT22;21230;51.170;17.024;2022-12-07T13:57:30;3.50;99.90
35043;DHT22;21230;51.170;17.024;2022-12-07T13:59:57;3.50;99.90
35043;DHT22;21230;51.170;17.024;2022-12-07T14:02:27;3.50;99.90
35043;DHT22;21230;51.170;17.024;2022-12-07T14:05:22;3.60;99.90
35043;DHT22;21230;51.170;17.024;2022-12-07T14:12:59;3.50;99.90
35043;DHT22;21230;51.170;17.024;2022-12-07T14:15:32;3.50;99.90
35043;DHT22;21230;51.170;17.024;2022-12-07T14:18:02;3.50;99.90
35043;DHT22;21230;51.170;17.024;2022-12-07T14:20:38;3.50;99.90
35043;DHT22;21230;51.170;17.024;2022-12-07T14:23:06;3.50;99.90
35043;DHT22;21230;51.170;17.024;2022-12-07T14:25:51;3.50;99.90
35043;DHT22;21230;51.170;17.024;2022-12-07T14:28:32;3.50;99.90
35043;DHT22;21230;51.170;17.024;2022-12-07T14:30:59;3.50;99.90
35043;DHT22;21230;51.170;17.024;2022-12-07T14:33:26;3.50;99.90
35043;DHT22;21230;51.170;17.024;2022-12-07T14:35:53;3.50;99.90
35043;DHT22;21230;51.170;17.024;2022-12-07T14:38:21;3.50;99.90
35043;DHT22;21230;51.170;17.024;2022-12-07T14:40:48;3.50;99.90
35043;DHT22;21230;51.170;17.024;2022-12-07T14:43:15;3.40;99.90
35043;DHT22;21230;51.170;17.024;2022-12-07T14:45:41;3.40;99.90
35043;DHT22;21230;51.170;17.024;2022-12-07T14:48:15;3.40;99.90
35043;DHT22;21230;51.170;17.024;2022-12-07T14:50:49;3.40;99.90
35043;DHT22;21230;51.170;17.024;2022-12-07T14:53:22;3.40;99.90
35043;DHT22;21230;51.170;17.024;2022-12-07T14:55:49;3.40;99.90
35043;DHT22;21230;51.170;17.024;2022-12-07T14:58:17;3.40;99.90
35043;DHT22;21230;51.170;17.024;2022-12-07T15:00:44;3.40;99.90
35043;DHT22;21230;51.170;17.024;2022-12-07T15:03:10;3.30;99.90
35043;DHT22;21230;51.170;17.024;2022-12-07T15:05:36;3.30;99.90
35043;DHT22;21230;51.170;17.024;2022-12-07T15:08:04;3.30;99.90
35043;DHT22;21230;51.170;17.024;2022-12-07T15:10:33;3.20;99.90
35043;DHT22;21230;51.170;17.024;2022-12-07T15:12:59;3.20;99.90
35043;DHT22;21230;51.170;17.024;2022-12-07T15:15:44;3.20;99.90
35043;DHT22;21230;51.170;17.024;2022-12-07T15:18:11;3.10;99.90
35043;DHT22;21230;51.170;17.024;2022-12-07T15:20:37;3.20;99.90
35043;DHT22;21230;51.170;17.024;2022-12-07T15:23:03;3.20;99.90
35043;DHT22;21230;51.170;17.024;2022-12-07T15:25:29;3.20;99.90
35043;DHT22;21230;51.170;17.024;2022-12-07T15:27:55;3.20;99.90
35043;DHT22;21230;51.170;17.024;2022-12-07T15:30:21;3.10;99.90
35043;DHT22;21230;51.170;17.024;2022-12-07T15:32:51;3.10;99.90
35043;DHT22;21230;51.170;17.024;2022-12-07T15:35:17;3.10;99.90
35043;DHT22;21230;51.170;17.024;2022-12-07T15:37:43;3.00;99.90
35043;DHT22;21230;51.170;17.024;2022-12-07T15:40:09;3.00;99.90
35043;DHT22;21230;51.170;17.024;2022-12-07T15:42:36;3.00;99.90
35043;DHT22;21230;51.170;17.024;2022-12-07T15:45:03;3.00;99.90
35043;DHT22;21230;51.170;17.024;2022-12-07T15:47:34;2.90;99.90
35043;DHT22;21230;51.170;17.024;2022-12-07T15:50:07;2.90;99.90
35043;DHT22;21230;51.170;17.024;2022-12-07T15:52:33;2.90;99.90
35043;DHT22;21230;51.170;17.024;2022-12-07T15:55:00;2.90;99.90
35043;DHT22;21230;51.170;17.024;2022-12-07T15:57:28;2.80;99.90
35043;DHT22;21230;51.170;17.024;2022-12-07T15:59:54;2.80;99.90
35043;DHT22;21230;51.170;17.024;2022-12-07T16:02:19;2.80;99.90
35043;DHT22;21230;51.170;17.024;2022-12-07T16:04:49;2.80;99.90
35043;DHT22;21230;51.170;17.024;2022-12-07T16:07:16;2.80;99.90
35043;DHT22;21230;51.170;17.024;2022-12-07T16:09:43;2.70;99.90
35043;DHT22;21230;51.170;17.024;2022-12-07T16:12:10;2.70;99.90
35043;DHT22;21230;51.170;17.024;2022-12-07T16:14:38;2.60;99.90
35043;DHT22;21230;51.170;17.024;2022-12-07T16:17:04;2.60;99.90
35043;DHT22;21230;51.170;17.024;2022-12-07T16:19:31;2.60;99.90
35043;DHT22;21230;51.170;17.024;2022-12-07T16:21:57;2.50;99.90
35043;DHT22;21230;51.170;17.024;2022-12-07T16:24:23;2.40;99.90
35043;DHT22;21230;51.170;17.024;2022-12-07T16:26:49;2.40;99.90
35043;DHT22;21230;51.170;17.024;2022-12-07T16:29:17;2.40;99.90
35043;DHT22;21230;51.170;17.024;2022-12-07T16:31:43;2.50;99.90
35043;DHT22;21230;51.170;17.024;2022-12-07T16:34:09;2.60;99.90
35043;DHT22;21230;51.170;17.024;2022-12-07T16:36:35;2.50;99.90
35043;DHT22;21230;51.170;17.024;2022-12-07T16:39:02;2.50;99.90
35043;DHT22;21230;51.170;17.024;2022-12-07T16:41:28;2.40;99.90
35043;DHT22;21230;51.170;17.024;2022-12-07T16:43:54;2.40;99.90
35043;DHT22;21230;51.170;17.024;2022-12-07T16:46:20;2.50;99.90
35043;DHT22;21230;51.170;17.024;2022-12-07T16:48:45;2.50;99.90
35043;DHT22;21230;51.170;17.024;2022-12-07T16:51:13;2.50;99.90
35043;DHT22;21230;51.170;17.024;2022-12-07T16:53:41;2.50;99.90
35043;DHT22;21230;51.170;17.024;2022-12-07T16:56:11;2.40;99.90
35043;DHT22;21230;51.170;17.024;2022-12-07T16:58:38;2.50;99.90
35043;DHT22;21230;51.170;17.024;2022-12-07T17:01:15;2.50;99.90
35043;DHT22;21230;51.170;17.024;2022-12-07T17:03:42;2.50;99.90
35043;DHT22;21230;51.170;17.024;2022-12-07T17:06:23;2.50;99.90
35043;DHT22;21230;51.170;17.024;2022-12-07T17:08:50;2.50;99.90
35043;DHT22;21230;51.170;17.024;2022-12-07T17:11:26;2.60;99.90
35043;DHT22;21230;51.170;17.024;2022-12-07T17:13:52;2.60;99.90
35043;DHT22;21230;51.170;17.024;2022-12-07T17:16:37;2.60;99.90
35043;DHT22;21230;51.170;17.024;2022-12-07T17:19:08;2.50;99.90
35043;DHT22;21230;51.170;17.024;2022-12-07T17:21:35;2.50;99.90
35043;DHT22;21230;51.170;17.024;2022-12-07T17:24:03;2.50;99.90
35043;DHT22;21230;51.170;17.024;2022-12-07T17:26:29;2.60;99.90
35043;DHT22;21230;51.170;17.024;2022-12-07T17:28:55;2.50;99.90
35043;DHT22;21230;51.170;17.024;2022-12-07T17:31:22;2.50;99.90
35043;DHT22;21230;51.170;17.024;2022-12-07T17:33:49;2.40;99.90
35043;DHT22;21230;51.170;17.024;2022-12-07T17:36:23;2.40;99.90
35043;DHT22;21230;51.170;17.024;2022-12-07T17:38:50;2.40;99.90
35043;DHT22;21230;51.170;17.024;2022-12-07T17:41:19;2.40;99.90
35043;DHT22;21230;51.170;17.024;2022-12-07T17:44:05;2.50;99.90
35043;DHT22;21230;51.170;17.024;2022-12-07T17:46:31;2.40;99.90
35043;DHT22;21230;51.170;17.024;2022-12-07T17:48:58;2.30;99.90
35043;DHT22;21230;51.170;17.024;2022-12-07T17:51:24;2.20;99.90
35043;DHT22;21230;51.170;17.024;2022-12-07T17:54:09;2.20;99.90
35043;DHT22;21230;51.170;17.024;2022-12-07T17:56:35;2.20;99.90
35043;DHT22;21230;51.170;17.024;2022-12-07T17:59:02;2.20;99.90
35043;DHT22;21230;51.170;17.024;2022-12-07T18:01:28;2.10;99.90
35043;DHT22;21230;51.170;17.024;2022-12-07T18:03:54;2.10;99.90
35043;DHT22;21230;51.170;17.024;2022-12-07T18:06:20;2.10;99.90
35043;DHT22;21230;51.170;17.024;2022-12-07T18:08:46;2.10;99.90
35043;DHT22;21230;51.170;17.024;2022-12-07T18:11:14;2.00;99.90
35043;DHT22;21230;51.170;17.024;2022-12-07T18:13:40;2.00;99.90
35043;DHT22;21230;51.170;17.024;2022-12-07T18:16:13;1.90;99.90